sensor_id;sensor_type;location;lat;lon;timestamp;pressure;altitude;pressure_sealevel;temperature;humidity
21433;BME280;18592;49.708;10.900;2022-11-20T00:01:40;98158.66;;;5.79;58.48
21433;BME280;18592;49.708;10.900;2022-11-20T00:03:45;98172.97;;;5.79;58.58
21433;BME280;18592;49.708;10.900;2022-11-20T00:05:47;98159.44;;;5.79;58.66
21433;BME280;18592;49.708;10.900;2022-11-20T00:07:48;98157.81;;;5.78;59.14
21433;BME280;18592;49.708;10.900;2022-11-20T00:09:50;98159.94;;;5.76;58.92
21433;BME280;18592;49.708;10.900;2022-11-20T00:11:55;98165.34;;;5.76;58.57
21433;BME280;18592;49.708;10.900;2022-11-20T00:14:01;98154.53;;;5.76;59.24
21433;BME280;18592;49.708;10.900;2022-11-20T00:16:05;98153.69;;;5.76;58.85
21433;BME280;18592;49.708;10.900;2022-11-20T00:18:07;98152.63;;;5.77;59.25
21433;BME280;18592;49.708;10.900;2022-11-20T00:20:09;98149.34;;;5.75;59.38
21433;BME280;18592;49.708;10.900;2022-11-20T00:22:11;98143.94;;;5.75;59.25
21433;BME280;18592;49.708;10.900;2022-11-20T00:24:13;98149.13;;;5.76;59.16
21433;BME280;18592;49.708;10.900;2022-11-20T00:26:16;98148.88;;;5.78;58.93
21433;BME280;18592;49.708;10.900;2022-11-20T00:28:18;98144.50;;;5.77;58.75
21433;BME280;18592;49.708;10.900;2022-11-20T00:30:19;98143.72;;;5.76;59.09
21433;BME280;18592;49.708;10.900;2022-11-20T00:32:21;98149.13;;;5.76;59.23
21433;BME280;18592;49.708;10.900;2022-11-20T00:34:23;98149.13;;;5.76;58.98
21433;BME280;18592;49.708;10.900;2022-11-20T00:36:27;98151.59;;;5.78;59.20
21433;BME280;18592;49.708;10.900;2022-11-20T00:38:30;98154.28;;;5.78;59.36
21433;BME280;18592;49.708;10.900;2022-11-20T00:40:34;98166.16;;;5.77;59.33
21433;BME280;18592;49.708;10.900;2022-11-20T00:42:35;98169.69;;;5.77;59.17
21433;BME280;18592;49.708;10.900;2022-11-20T00:44:40;98169.69;;;5.77;58.85
21433;BME280;18592;49.708;10.900;2022-11-20T00:46:42;98164.28;;;5.77;59.40
21433;BME280;18592;49.708;10.900;2022-11-20T00:48:49;98157.22;;;5.76;59.30
21433;BME280;18592;49.708;10.900;2022-11-20T00:50:51;98150.69;;;5.84;58.90
21433;BME280;18592;49.708;10.900;2022-11-20T00:52:53;98147.13;;;5.84;58.70
21433;BME280;18592;49.708;10.900;2022-11-20T00:54:55;98167.09;;;5.83;59.01
21433;BME280;18592;49.708;10.900;2022-11-20T00:56:59;98158.41;;;5.81;59.49
21433;BME280;18592;49.708;10.900;2022-11-20T00:59:01;98167.34;;;5.81;59.15
21433;BME280;18592;49.708;10.900;2022-11-20T01:01:06;98169.22;;;5.81;59.55
21433;BME280;18592;49.708;10.900;2022-11-20T01:03:08;98167.94;;;5.83;59.24
21433;BME280;18592;49.708;10.900;2022-11-20T01:05:12;98164.66;;;5.81;58.91
21433;BME280;18592;49.708;10.900;2022-11-20T01:07:14;98167.94;;;5.83;59.13
21433;BME280;18592;49.708;10.900;2022-11-20T01:09:16;98166.06;;;5.84;58.79
21433;BME280;18592;49.708;10.900;2022-11-20T01:11:23;98172.75;;;5.81;59.31
21433;BME280;18592;49.708;10.900;2022-11-20T01:13:24;98176.88;;;5.84;59.29
21433;BME280;18592;49.708;10.900;2022-11-20T01:15:41;98186.03;;;5.83;59.40
21433;BME280;18592;49.708;10.900;2022-11-20T01:17:43;98194.97;;;5.83;59.20
21433;BME280;18592;49.708;10.900;2022-11-20T01:19:44;98182.28;;;5.84;59.03
21433;BME280;18592;49.708;10.900;2022-11-20T01:21:49;98170.06;;;5.81;59.36
21433;BME280;18592;49.708;10.900;2022-11-20T01:23:51;98172.50;;;5.83;58.73
21433;BME280;18592;49.708;10.900;2022-11-20T01:25:55;98167.72;;;5.85;58.91
21433;BME280;18592;49.708;10.900;2022-11-20T01:27:57;98183.94;;;5.85;58.88
21433;BME280;18592;49.708;10.900;2022-11-20T01:29:58;98186.66;;;5.85;58.63
21433;BME280;18592;49.708;10.900;2022-11-20T01:32:01;98188.16;;;5.81;59.02
21433;BME280;18592;49.708;10.900;2022-11-20T01:34:09;98186.03;;;5.83;59.18
21433;BME280;18592;49.708;10.900;2022-11-20T01:36:13;98175.22;;;5.83;59.00
21433;BME280;18592;49.708;10.900;2022-11-20T01:38:16;98172.31;;;5.84;58.80
21433;BME280;18592;49.708;10.900;2022-11-20T01:40:25;98178.75;;;5.83;59.25
21433;BME280;18592;49.708;10.900;2022-11-20T01:42:27;98166.69;;;5.86;59.12
21433;BME280;18592;49.708;10.900;2022-11-20T01:44:48;98156.91;;;5.85;59.49
21433;BME280;18592;49.708;10.900;2022-11-20T01:46:59;98171.06;;;5.87;59.14
21433;BME280;18592;49.708;10.900;2022-11-20T01:49:03;98167.72;;;5.85;58.90
21433;BME280;18592;49.708;10.900;2022-11-20T01:51:13;98167.09;;;5.83;58.98
21433;BME280;18592;49.708;10.900;2022-11-20T01:53:25;98170.44;;;5.85;59.10
21433;BME280;18592;49.708;10.900;2022-11-20T01:55:32;98172.94;;;5.86;59.35
21433;BME280;18592;49.708;10.900;2022-11-20T01:57:35;98174.34;;;5.89;59.13
21433;BME280;18592;49.708;10.900;2022-11-20T01:59:43;98171.25;;;5.85;58.81
21433;BME280;18592;49.708;10.900;2022-11-20T02:01:46;98163.97;;;5.86;59.19
21433;BME280;18592;49.708;10.900;2022-11-20T02:03:49;98163.16;;;5.85;59.48
21433;BME280;18592;49.708;10.900;2022-11-20T02:08:04;98153.16;;;5.86;59.02
21433;BME280;18592;49.708;10.900;2022-11-20T02:10:15;98150.69;;;5.84;58.93
21433;BME280;18592;49.708;10.900;2022-11-20T02:12:16;98153.59;;;5.83;59.53
21433;BME280;18592;49.708;10.900;2022-11-20T02:14:37;98156.53;;;5.81;58.99
21433;BME280;18592;49.708;10.900;2022-11-20T02:16:45;98151.34;;;5.79;58.97
21433;BME280;18592;49.708;10.900;2022-11-20T02:18:47;98156.75;;;5.79;59.09
21433;BME280;18592;49.708;10.900;2022-11-20T02:21:02;98155.72;;;5.81;59.17
21433;BME280;18592;49.708;10.900;2022-11-20T02:25:17;98167.94;;;5.83;59.01
21433;BME280;18592;49.708;10.900;2022-11-20T02:27:20;98167.09;;;5.83;59.76
21433;BME280;18592;49.708;10.900;2022-11-20T02:29:26;98162.53;;;5.83;59.48
21433;BME280;18592;49.708;10.900;2022-11-20T02:31:38;98157.56;;;5.80;59.34
21433;BME280;18592;49.708;10.900;2022-11-20T02:33:41;98164.19;;;5.84;59.21
21433;BME280;18592;49.708;10.900;2022-11-20T02:35:46;98158.56;;;5.86;59.22
21433;BME280;18592;49.708;10.900;2022-11-20T02:37:51;98160.44;;;5.85;59.37
21433;BME280;18592;49.708;10.900;2022-11-20T02:39:54;98149.41;;;5.87;58.75
21433;BME280;18592;49.708;10.900;2022-11-20T02:41:56;98145.06;;;5.86;58.92
21433;BME280;18592;49.708;10.900;2022-11-20T02:43:58;98146.72;;;5.87;59.09
21433;BME280;18592;49.708;10.900;2022-11-20T02:46:01;98148.13;;;5.89;58.99
21433;BME280;18592;49.708;10.900;2022-11-20T02:48:03;98150.47;;;5.86;58.83
21433;BME280;18592;49.708;10.900;2022-11-20T02:50:09;98154.66;;;5.82;59.15
21433;BME280;18592;49.708;10.900;2022-11-20T02:52:11;98154.88;;;5.80;58.84
21433;BME280;18592;49.708;10.900;2022-11-20T02:54:12;98147.84;;;5.79;59.14
21433;BME280;18592;49.708;10.900;2022-11-20T02:56:15;98140.75;;;5.78;59.12
21433;BME280;18592;49.708;10.900;2022-11-20T02:58:17;98137.22;;;5.77;59.38
21433;BME280;18592;49.708;10.900;2022-11-20T03:00:22;98145.34;;;5.77;59.27
21433;BME280;18592;49.708;10.900;2022-11-20T03:02:23;98134.53;;;5.77;59.31
21433;BME280;18592;49.708;10.900;2022-11-20T03:04:25;98140.53;;;5.79;58.88
21433;BME280;18592;49.708;10.900;2022-11-20T03:06:30;98129.72;;;5.79;59.18
21433;BME280;18592;49.708;10.900;2022-11-20T03:08:33;98137.38;;;5.83;58.92
21433;BME280;18592;49.708;10.900;2022-11-20T03:10:35;98128.91;;;5.79;58.83
21433;BME280;18592;49.708;10.900;2022-11-20T03:12:36;98127.84;;;5.80;59.09
21433;BME280;18592;49.708;10.900;2022-11-20T03:14:38;98128.06;;;5.78;58.88
21433;BME280;18592;49.708;10.900;2022-11-20T03:16:40;98122.88;;;5.77;58.86
21433;BME280;18592;49.708;10.900;2022-11-20T03:18:45;98127.50;;;5.76;59.67
21433;BME280;18592;49.708;10.900;2022-11-20T03:20:57;98136.19;;;5.78;58.96
21433;BME280;18592;49.708;10.900;2022-11-20T03:22:59;98123.72;;;5.77;59.42
21433;BME280;18592;49.708;10.900;2022-11-20T03:25:01;98123.50;;;5.79;59.61
21433;BME280;18592;49.708;10.900;2022-11-20T03:27:03;98120.78;;;5.79;59.50
21433;BME280;18592;49.708;10.900;2022-11-20T03:29:05;98128.66;;;5.81;59.03
21433;BME280;18592;49.708;10.900;2022-11-20T03:31:09;98122.22;;;5.82;59.53
21433;BME280;18592;49.708;10.900;2022-11-20T03:33:14;98118.88;;;5.79;59.06
21433;BME280;18592;49.708;10.900;2022-11-20T03:35:16;98121.84;;;5.78;59.24
21433;BME280;18592;49.708;10.900;2022-11-20T03:37:19;98127.00;;;5.79;59.42
21433;BME280;18592;49.708;10.900;2022-11-20T03:39:20;98124.53;;;5.78;59.07
21433;BME280;18592;49.708;10.900;2022-11-20T03:41:28;98128.28;;;5.77;58.82
21433;BME280;18592;49.708;10.900;2022-11-20T03:43:31;98118.53;;;5.76;59.58
21433;BME280;18592;49.708;10.900;2022-11-20T03:45:32;98120.41;;;5.75;58.95
21433;BME280;18592;49.708;10.900;2022-11-20T03:47:34;98117.97;;;5.74;59.39
21433;BME280;18592;49.708;10.900;2022-11-20T03:49:35;98125.00;;;5.75;59.31
21433;BME280;18592;49.708;10.900;2022-11-20T03:51:37;98115.00;;;5.75;59.43
21433;BME280;18592;49.708;10.900;2022-11-20T03:53:43;98105.84;;;5.76;59.10
21433;BME280;18592;49.708;10.900;2022-11-20T03:55:50;98107.94;;;5.74;59.33
21433;BME280;18592;49.708;10.900;2022-11-20T03:57:56;98113.34;;;5.74;59.73
21433;BME280;18592;49.708;10.900;2022-11-20T03:59:57;98115.84;;;5.76;59.70
21433;BME280;18592;49.708;10.900;2022-11-20T04:01:59;98111.84;;;5.78;59.53
21433;BME280;18592;49.708;10.900;2022-11-20T04:04:01;98115.00;;;5.75;59.71
21433;BME280;18592;49.708;10.900;2022-11-20T04:08:08;98111.03;;;5.78;59.44
21433;BME280;18592;49.708;10.900;2022-11-20T04:10:15;98119.13;;;5.78;59.26
21433;BME280;18592;49.708;10.900;2022-11-20T04:12:16;98113.97;;;5.76;59.80
21433;BME280;18592;49.708;10.900;2022-11-20T04:14:18;98117.47;;;5.77;59.51
21433;BME280;18592;49.708;10.900;2022-11-20T04:16:21;98108.31;;;5.78;59.33
21433;BME280;18592;49.708;10.900;2022-11-20T04:18:22;98112.91;;;5.77;59.17
21433;BME280;18592;49.708;10.900;2022-11-20T04:20:24;98117.25;;;5.78;59.12
21433;BME280;18592;49.708;10.900;2022-11-20T04:22:26;98121.84;;;5.78;59.30
21433;BME280;18592;49.708;10.900;2022-11-20T04:24:27;98106.44;;;5.78;59.38
21433;BME280;18592;49.708;10.900;2022-11-20T04:26:30;98089.97;;;5.80;59.25
21433;BME280;18592;49.708;10.900;2022-11-20T04:28:31;98098.91;;;5.81;59.06
21433;BME280;18592;49.708;10.900;2022-11-20T04:30:33;98099.97;;;5.79;59.22
21433;BME280;18592;49.708;10.900;2022-11-20T04:32:35;98090.81;;;5.81;59.20
21433;BME280;18592;49.708;10.900;2022-11-20T04:34:36;98093.75;;;5.79;59.30
21433;BME280;18592;49.708;10.900;2022-11-20T04:36:41;98090.22;;;5.78;59.10
21433;BME280;18592;49.708;10.900;2022-11-20T04:38:44;98089.97;;;5.80;59.29
21433;BME280;18592;49.708;10.900;2022-11-20T04:40:46;98097.25;;;5.79;59.57
21433;BME280;18592;49.708;10.900;2022-11-20T04:42:47;98097.03;;;5.81;59.38
21433;BME280;18592;49.708;10.900;2022-11-20T04:44:49;98089.75;;;5.82;59.42
21433;BME280;18592;49.708;10.900;2022-11-20T04:46:50;98085.97;;;5.83;59.23
21433;BME280;18592;49.708;10.900;2022-11-20T04:48:52;98091.63;;;5.81;59.78
21433;BME280;18592;49.708;10.900;2022-11-20T04:50:55;98090.81;;;5.81;59.46
21433;BME280;18592;49.708;10.900;2022-11-20T04:52:56;98090.81;;;5.81;59.14
21433;BME280;18592;49.708;10.900;2022-11-20T04:54:59;98091.63;;;5.81;59.55
21433;BME280;18592;49.708;10.900;2022-11-20T04:57:01;98096.22;;;5.81;59.31
21433;BME280;18592;49.708;10.900;2022-11-20T04:59:03;98097.88;;;5.82;59.53
21433;BME280;18592;49.708;10.900;2022-11-20T05:03:07;98102.22;;;5.83;59.39
21433;BME280;18592;49.708;10.900;2022-11-20T05:05:11;98092.47;;;5.82;59.28
21433;BME280;18592;49.708;10.900;2022-11-20T05:07:16;98091.63;;;5.81;59.12
21433;BME280;18592;49.708;10.900;2022-11-20T05:09:19;98101.16;;;5.84;60.03
21433;BME280;18592;49.708;10.900;2022-11-20T05:11:21;98094.09;;;5.83;59.08
21433;BME280;18592;49.708;10.900;2022-11-20T05:13:23;98105.53;;;5.85;59.46
21433;BME280;18592;49.708;10.900;2022-11-20T05:15:24;98102.81;;;5.85;59.29
21433;BME280;18592;49.708;10.900;2022-11-20T05:17:26;98097.41;;;5.85;59.80
21433;BME280;18592;49.708;10.900;2022-11-20T05:19:28;98094.94;;;5.83;59.57
21433;BME280;18592;49.708;10.900;2022-11-20T05:21:32;98092.00;;;5.85;59.58
21433;BME280;18592;49.708;10.900;2022-11-20T05:23:34;98086.59;;;5.85;59.23
21433;BME280;18592;49.708;10.900;2022-11-20T05:25:35;98083.28;;;5.83;59.56
21433;BME280;18592;49.708;10.900;2022-11-20T05:27:37;98086.59;;;5.85;59.53
21433;BME280;18592;49.708;10.900;2022-11-20T05:29:42;98098.47;;;5.84;59.30
21433;BME280;18592;49.708;10.900;2022-11-20T05:31:47;98098.25;;;5.85;59.56
21433;BME280;18592;49.708;10.900;2022-11-20T05:33:48;98089.31;;;5.85;59.29
21433;BME280;18592;49.708;10.900;2022-11-20T05:35:50;98087.44;;;5.85;59.76
21433;BME280;18592;49.708;10.900;2022-11-20T05:37:53;98086.97;;;5.88;59.88
21433;BME280;18592;49.708;10.900;2022-11-20T05:39:54;98078.84;;;5.88;59.62
21433;BME280;18592;49.708;10.900;2022-11-20T05:41:56;98075.56;;;5.86;59.96
21433;BME280;18592;49.708;10.900;2022-11-20T05:44:16;98074.75;;;5.86;59.31
21433;BME280;18592;49.708;10.900;2022-11-20T05:46:20;98072.63;;;5.88;59.81
21433;BME280;18592;49.708;10.900;2022-11-20T05:48:30;98070.16;;;5.86;59.81
21433;BME280;18592;49.708;10.900;2022-11-20T05:50:35;98072.03;;;5.86;59.52
21433;BME280;18592;49.708;10.900;2022-11-20T05:52:37;98078.03;;;5.88;59.50
21433;BME280;18592;49.708;10.900;2022-11-20T05:54:41;98078.59;;;5.90;59.68
21433;BME280;18592;49.708;10.900;2022-11-20T05:56:43;98083.81;;;5.91;59.42
21433;BME280;18592;49.708;10.900;2022-11-20T05:58:46;98085.44;;;5.92;59.72
21433;BME280;18592;49.708;10.900;2022-11-20T06:00:47;98074.88;;;5.91;59.67
21433;BME280;18592;49.708;10.900;2022-11-20T06:02:49;98079.44;;;5.90;59.79
21433;BME280;18592;49.708;10.900;2022-11-20T06:04:51;98073.19;;;5.90;59.71
21433;BME280;18592;49.708;10.900;2022-11-20T06:06:52;98061.59;;;5.89;59.71
21433;BME280;18592;49.708;10.900;2022-11-20T06:08:54;98065.09;;;5.90;59.34
21433;BME280;18592;49.708;10.900;2022-11-20T06:10:57;98062.38;;;5.90;59.73
21433;BME280;18592;49.708;10.900;2022-11-20T06:13:01;98069.44;;;5.91;59.66
21433;BME280;18592;49.708;10.900;2022-11-20T06:15:05;98064.63;;;5.93;59.70
21433;BME280;18592;49.708;10.900;2022-11-20T06:17:07;98067.34;;;5.93;59.58
21433;BME280;18592;49.708;10.900;2022-11-20T06:19:09;98071.69;;;5.94;59.79
21433;BME280;18592;49.708;10.900;2022-11-20T06:21:15;98073.56;;;5.93;59.95
21433;BME280;18592;49.708;10.900;2022-11-20T06:23:17;98070.63;;;5.95;59.49
21433;BME280;18592;49.708;10.900;2022-11-20T06:25:18;98070.63;;;5.95;59.55
21433;BME280;18592;49.708;10.900;2022-11-20T06:27:20;98067.69;;;5.96;59.77
21433;BME280;18592;49.708;10.900;2022-11-20T06:29:22;98073.31;;;5.95;59.56
21433;BME280;18592;49.708;10.900;2022-11-20T06:31:25;98069.56;;;5.96;59.89
21433;BME280;18592;49.708;10.900;2022-11-20T06:33:29;98066.88;;;5.96;59.85
21433;BME280;18592;49.708;10.900;2022-11-20T06:35:31;98071.44;;;5.95;59.51
21433;BME280;18592;49.708;10.900;2022-11-20T06:37:36;98068.28;;;5.98;59.64
21433;BME280;18592;49.708;10.900;2022-11-20T06:39:37;98072.66;;;5.99;59.62
21433;BME280;18592;49.708;10.900;2022-11-20T06:41:39;98073.44;;;6.00;59.60
21433;BME280;18592;49.708;10.900;2022-11-20T06:43:41;98074.28;;;6.00;59.95
21433;BME280;18592;49.708;10.900;2022-11-20T06:45:45;98069.94;;;5.99;59.48
21433;BME280;18592;49.708;10.900;2022-11-20T06:47:47;98077.44;;;5.97;59.07
21433;BME280;18592;49.708;10.900;2022-11-20T06:49:49;98075.56;;;5.98;59.85
21433;BME280;18592;49.708;10.900;2022-11-20T06:51:50;98077.22;;;5.99;59.65
21433;BME280;18592;49.708;10.900;2022-11-20T06:53:52;98081.81;;;5.98;59.96
21433;BME280;18592;49.708;10.900;2022-11-20T06:55:55;98073.94;;;5.97;60.05
21433;BME280;18592;49.708;10.900;2022-11-20T06:57:57;98085.56;;;5.97;59.49
21433;BME280;18592;49.708;10.900;2022-11-20T06:59:59;98091.81;;;5.98;59.68
21433;BME280;18592;49.708;10.900;2022-11-20T07:02:01;98091.81;;;5.98;59.85
21433;BME280;18592;49.708;10.900;2022-11-20T07:04:02;98087.22;;;5.98;59.85
21433;BME280;18592;49.708;10.900;2022-11-20T07:06:08;98084.88;;;6.02;60.00
21433;BME280;18592;49.708;10.900;2022-11-20T07:08:10;98086.75;;;6.01;59.49
21433;BME280;18592;49.708;10.900;2022-11-20T07:10:11;98084.88;;;6.02;59.79
21433;BME280;18592;49.708;10.900;2022-11-20T07:12:17;98085.09;;;6.00;60.10
21433;BME280;18592;49.708;10.900;2022-11-20T07:14:19;98091.34;;;6.01;59.72
21433;BME280;18592;49.708;10.900;2022-11-20T07:16:20;98089.69;;;6.00;59.70
21433;BME280;18592;49.708;10.900;2022-11-20T07:18:22;98088.06;;;5.99;59.35
21433;BME280;18592;49.708;10.900;2022-11-20T07:20:27;98088.63;;;6.01;60.10
21433;BME280;18592;49.708;10.900;2022-11-20T07:22:29;98083.22;;;6.01;60.16
21433;BME280;18592;49.708;10.900;2022-11-20T07:24:34;98093.81;;;6.02;59.59
21433;BME280;18592;49.708;10.900;2022-11-20T07:26:48;98092.16;;;6.01;59.99
21433;BME280;18592;49.708;10.900;2022-11-20T07:28:52;98094.63;;;6.03;59.52
21433;BME280;18592;49.708;10.900;2022-11-20T07:30:54;98095.91;;;6.00;59.65
21433;BME280;18592;49.708;10.900;2022-11-20T07:32:57;98094.03;;;6.01;60.00
21433;BME280;18592;49.708;10.900;2022-11-20T07:34:58;98097.59;;;6.01;59.83
21433;BME280;18592;49.708;10.900;2022-11-20T07:37:00;98091.34;;;6.01;59.79
21433;BME280;18592;49.708;10.900;2022-11-20T07:39:09;98097.34;;;6.03;59.96
21433;BME280;18592;49.708;10.900;2022-11-20T07:41:13;98092.75;;;6.03;60.21
21433;BME280;18592;49.708;10.900;2022-11-20T07:43:16;98092.28;;;6.06;59.66
21433;BME280;18592;49.708;10.900;2022-11-20T07:45:18;98099.56;;;6.06;59.46
21433;BME280;18592;49.708;10.900;2022-11-20T07:47:20;98095.00;;;6.06;59.69
21433;BME280;18592;49.708;10.900;2022-11-20T07:49:22;98089.59;;;6.06;60.06
21433;BME280;18592;49.708;10.900;2022-11-20T07:51:24;98091.22;;;6.07;60.19
21433;BME280;18592;49.708;10.900;2022-11-20T07:53:27;98093.13;;;6.07;60.16
21433;BME280;18592;49.708;10.900;2022-11-20T07:55:29;98095.81;;;6.07;59.81
21433;BME280;18592;49.708;10.900;2022-11-20T07:57:31;98098.28;;;6.08;59.91
21433;BME280;18592;49.708;10.900;2022-11-20T07:59:32;98091.59;;;6.11;59.75
21433;BME280;18592;49.708;10.900;2022-11-20T08:01:39;98078.31;;;6.09;60.25
21433;BME280;18592;49.708;10.900;2022-11-20T08:03:40;98076.78;;;6.13;59.62
21433;BME280;18592;49.708;10.900;2022-11-20T08:05:42;98079.22;;;6.15;59.84
21433;BME280;18592;49.708;10.900;2022-11-20T08:07:46;98084.06;;;6.13;60.03
21433;BME280;18592;49.708;10.900;2022-11-20T08:09:56;98082.44;;;6.12;59.68
21433;BME280;18592;49.708;10.900;2022-11-20T08:11:59;98078.31;;;6.09;59.90
21433;BME280;18592;49.708;10.900;2022-11-20T08:14:19;98088.06;;;6.10;59.69
21433;BME280;18592;49.708;10.900;2022-11-20T08:16:21;98082.63;;;6.10;60.04
21433;BME280;18592;49.708;10.900;2022-11-20T08:18:24;98086.19;;;6.11;60.17
21433;BME280;18592;49.708;10.900;2022-11-20T08:20:34;98091.13;;;6.14;60.13
21433;BME280;18592;49.708;10.900;2022-11-20T08:22:36;98091.13;;;6.14;60.02
21433;BME280;18592;49.708;10.900;2022-11-20T08:24:38;98091.94;;;6.14;60.18
21433;BME280;18592;49.708;10.900;2022-11-20T08:26:40;98087.34;;;6.15;60.19
21433;BME280;18592;49.708;10.900;2022-11-20T08:28:42;98095.25;;;6.16;59.88
21433;BME280;18592;49.708;10.900;2022-11-20T08:30:47;98088.75;;;6.17;60.42
21433;BME280;18592;49.708;10.900;2022-11-20T08:32:49;98090.16;;;6.20;60.03
21433;BME280;18592;49.708;10.900;2022-11-20T08:34:53;98089.97;;;6.21;60.40
21433;BME280;18592;49.708;10.900;2022-11-20T08:36:55;98084.53;;;6.21;60.27
21433;BME280;18592;49.708;10.900;2022-11-20T08:38:57;98079.97;;;6.22;60.44
21433;BME280;18592;49.708;10.900;2022-11-20T08:41:02;98085.13;;;6.23;60.14
21433;BME280;18592;49.708;10.900;2022-11-20T08:43:27;98084.06;;;6.24;60.14
21433;BME280;18592;49.708;10.900;2022-11-20T08:45:28;98080.28;;;6.25;60.30
21433;BME280;18592;49.708;10.900;2022-11-20T08:47:35;98081.13;;;6.26;60.09
21433;BME280;18592;49.708;10.900;2022-11-20T08:49:36;98084.41;;;6.28;60.36
21433;BME280;18592;49.708;10.900;2022-11-20T08:51:39;98092.31;;;6.29;60.30
21433;BME280;18592;49.708;10.900;2022-11-20T08:53:43;98081.25;;;6.31;60.47
21433;BME280;18592;49.708;10.900;2022-11-20T08:55:45;98085.00;;;6.30;60.25
21433;BME280;18592;49.708;10.900;2022-11-20T08:57:47;98088.31;;;6.32;60.24
21433;BME280;18592;49.708;10.900;2022-11-20T08:59:54;98079.94;;;6.33;60.62
21433;BME280;18592;49.708;10.900;2022-11-20T09:02:07;98074.91;;;6.37;60.52
21433;BME280;18592;49.708;10.900;2022-11-20T09:04:09;98079.81;;;6.40;60.11
21433;BME280;18592;49.708;10.900;2022-11-20T09:06:13;98081.47;;;6.41;60.56
21433;BME280;18592;49.708;10.900;2022-11-20T09:08:15;98077.72;;;6.42;60.17
21433;BME280;18592;49.708;10.900;2022-11-20T09:10:16;98082.06;;;6.43;60.57
21433;BME280;18592;49.708;10.900;2022-11-20T09:12:26;98088.28;;;6.44;60.62
21433;BME280;18592;49.708;10.900;2022-11-20T09:14:27;98091.38;;;6.47;60.58
21433;BME280;18592;49.708;10.900;2022-11-20T09:16:31;98089.25;;;6.49;60.08
21433;BME280;18592;49.708;10.900;2022-11-20T09:18:34;98080.06;;;6.50;60.41
21433;BME280;18592;49.708;10.900;2022-11-20T09:20:40;98071.69;;;6.52;60.58
21433;BME280;18592;49.708;10.900;2022-11-20T09:22:42;98069.25;;;6.50;60.46
21433;BME280;18592;49.708;10.900;2022-11-20T09:24:45;98072.53;;;6.52;60.51
21433;BME280;18592;49.708;10.900;2022-11-20T09:26:47;98074.41;;;6.52;60.06
21433;BME280;18592;49.708;10.900;2022-11-20T09:28:51;98085.00;;;6.53;60.57
21433;BME280;18592;49.708;10.900;2022-11-20T09:31:24;98087.13;;;6.51;60.58
21433;BME280;18592;49.708;10.900;2022-11-20T09:33:30;98085.00;;;6.53;60.34
21433;BME280;18592;49.708;10.900;2022-11-20T09:35:32;98088.31;;;6.55;60.39
21433;BME280;18592;49.708;10.900;2022-11-20T09:37:34;98092.66;;;6.56;60.65
21433;BME280;18592;49.708;10.900;2022-11-20T09:39:36;98082.91;;;6.55;60.68
21433;BME280;18592;49.708;10.900;2022-11-20T09:41:55;98087.47;;;6.55;60.74
21433;BME280;18592;49.708;10.900;2022-11-20T09:46:33;98083.69;;;6.56;60.58
21433;BME280;18592;49.708;10.900;2022-11-20T09:51:03;98085.09;;;6.58;60.71
21433;BME280;18592;49.708;10.900;2022-11-20T09:53:27;98074.06;;;6.60;60.50
21433;BME280;18592;49.708;10.900;2022-11-20T09:55:33;98081.47;;;6.64;60.32
21433;BME280;18592;49.708;10.900;2022-11-20T09:57:40;98085.22;;;6.63;60.93
21433;BME280;18592;49.708;10.900;2022-11-20T09:59:47;98080.41;;;6.65;60.69
21433;BME280;18592;49.708;10.900;2022-11-20T10:01:55;98079.34;;;6.66;60.57
21433;BME280;18592;49.708;10.900;2022-11-20T10:04:03;98081.00;;;6.67;60.79
21433;BME280;18592;49.708;10.900;2022-11-20T10:06:11;98075.56;;;6.67;60.75
21433;BME280;18592;49.708;10.900;2022-11-20T10:08:28;98068.28;;;6.68;60.58
21433;BME280;18592;49.708;10.900;2022-11-20T10:10:45;98074.59;;;6.73;60.60
21433;BME280;18592;49.708;10.900;2022-11-20T10:15:55;98065.69;;;6.73;60.95
21433;BME280;18592;49.708;10.900;2022-11-20T10:18:29;98055.66;;;6.73;61.02
21433;BME280;18592;49.708;10.900;2022-11-20T10:25:39;98060.13;;;6.79;60.93
21433;BME280;18592;49.708;10.900;2022-11-20T10:32:15;98063.97;;;6.83;60.75
21433;BME280;18592;49.708;10.900;2022-11-20T10:34:25;98063.50;;;6.86;60.84
21433;BME280;18592;49.708;10.900;2022-11-20T10:36:32;98053.25;;;6.88;60.70
21433;BME280;18592;49.708;10.900;2022-11-20T10:39:06;98050.53;;;6.88;60.86
21433;BME280;18592;49.708;10.900;2022-11-20T10:41:06;98043.03;;;6.90;60.77
21433;BME280;18592;49.708;10.900;2022-11-20T10:43:32;98037.59;;;6.90;60.96
21433;BME280;18592;49.708;10.900;2022-11-20T10:47:50;98052.56;;;6.93;60.84
21433;BME280;18592;49.708;10.900;2022-11-20T10:49:54;98062.31;;;6.94;60.72
21433;BME280;18592;49.708;10.900;2022-11-20T10:52:12;98072.69;;;6.97;60.93
21433;BME280;18592;49.708;10.900;2022-11-20T10:54:47;98061.59;;;6.98;60.70
21433;BME280;18592;49.708;10.900;2022-11-20T10:57:10;98059.97;;;6.97;60.63
21433;BME280;18592;49.708;10.900;2022-11-20T10:59:46;98072.44;;;6.98;60.79
21433;BME280;18592;49.708;10.900;2022-11-20T11:01:52;98064.06;;;7.00;60.81
21433;BME280;18592;49.708;10.900;2022-11-20T11:03:55;98064.91;;;7.00;60.79
21433;BME280;18592;49.708;10.900;2022-11-20T11:06:07;98071.72;;;7.03;60.78
21433;BME280;18592;49.708;10.900;2022-11-20T11:08:14;98069.03;;;7.03;60.88
21433;BME280;18592;49.708;10.900;2022-11-20T11:10:18;98073.13;;;7.06;60.86
21433;BME280;18592;49.708;10.900;2022-11-20T11:12:22;98067.47;;;7.07;60.76
21433;BME280;18592;49.708;10.900;2022-11-20T11:14:25;98058.50;;;7.07;60.73
21433;BME280;18592;49.708;10.900;2022-11-20T11:16:26;98051.78;;;7.09;61.08
21433;BME280;18592;49.708;10.900;2022-11-20T11:18:33;98046.13;;;7.11;61.02
21433;BME280;18592;49.708;10.900;2022-11-20T11:20:35;98048.34;;;7.14;61.13
21433;BME280;18592;49.708;10.900;2022-11-20T11:22:50;98047.88;;;7.17;61.36
21433;BME280;18592;49.708;10.900;2022-11-20T11:24:55;98041.50;;;7.23;61.28
21433;BME280;18592;49.708;10.900;2022-11-20T11:26:58;98039.44;;;7.30;61.81
21433;BME280;18592;49.708;10.900;2022-11-20T11:29:03;98027.75;;;7.41;61.69